Time;durP1;ratioP1;P1;durP2;ratioP2;P2;SDS_P1;SDS_P2;PMS_P1;PMS_P2;Temp;Humidity;BMP_temperature;BMP_pressure;BME280_temperature;BME280_humidity;BME280_pressure;Samples;Min_cycle;Max_cycle;Signal;HPM_P1;HPM_P2
2022/12/02 00:01:39;;;;;;;;;;;;;;;6.43;73.50;98691.34;7386360;19;20378;-75
2022/12/02 00:04:13;;;;;;;;;;;;;;;6.41;74.04;98689.78;7389796;19;19919;-75
2022/12/02 00:06:40;;;;;;;;;;;;;;;6.43;74.06;98687.88;7389599;19;19998;-75
2022/12/02 00:09:22;;;;;;;;;;;;;;;6.30;74.35;98686.22;7387405;19;20389;-75
2022/12/02 00:11:49;;;;;;;;;;;;;;;6.45;74.07;98689.44;7386688;19;19914;-75
2022/12/02 00:14:19;;;;;;;;;;;;;;;6.44;74.07;98674.63;7384790;19;19919;-75
2022/12/02 00:16:46;;;;;;;;;;;;;;;6.32;74.09;98668.56;7385500;19;19918;-75
2022/12/02 00:19:13;;;;;;;;;;;;;;;6.19;74.43;98672.25;7387455;19;20261;-75
2022/12/02 00:21:41;;;;;;;;;;;;;;;6.18;74.52;98670.59;7377823;19;22889;-75
2022/12/02 00:24:07;;;;;;;;;;;;;;;6.21;74.46;98673.78;7386013;19;20303;-75
2022/12/02 00:26:34;;;;;;;;;;;;;;;6.34;74.01;98671.03;7388436;19;19927;-75
2022/12/02 00:29:00;;;;;;;;;;;;;;;6.27;74.52;98673.34;7378617;19;19926;-75
2022/12/02 00:31:27;;;;;;;;;;;;;;;6.43;74.13;98665.06;7384770;19;20693;-75
2022/12/02 00:33:56;;;;;;;;;;;;;;;6.07;74.28;98668.81;7385133;19;19934;-75
2022/12/02 00:36:23;;;;;;;;;;;;;;;6.26;74.77;98662.94;7386637;19;19923;-76
2022/12/02 00:38:50;;;;;;;;;;;;;;;6.32;74.34;98662.47;7387223;19;19931;-75
2022/12/02 00:41:17;;;;;;;;;;;;;;;6.28;74.35;98663.66;7387895;19;19918;-75
2022/12/02 00:46:33;;;;;;;;;;;;;;;6.30;74.30;98665.19;7387166;19;19915;-75
2022/12/02 00:49:05;;;;;;;;;;;;;;;6.30;74.43;98661.75;7385203;19;19926;-75
2022/12/02 00:51:32;;;;;;;;;;;;;;;6.46;74.51;98653.47;7382487;19;20304;-75
2022/12/02 00:53:59;;;;;;;;;;;;;;;6.33;73.81;98658.88;7387018;19;19930;-75
2022/12/02 00:56:25;;;;;;;;;;;;;;;6.18;74.34;98652.19;7390333;19;19941;-75
2022/12/02 00:58:52;;;;;;;;;;;;;;;6.14;74.99;98652.44;7386456;19;20206;-75
2022/12/02 01:01:19;;;;;;;;;;;;;;;6.12;74.91;98645.63;7386281;19;20530;-75
2022/12/02 01:03:46;;;;;;;;;;;;;;;6.08;75.15;98652.06;7384294;19;19931;-75
2022/12/02 01:06:13;;;;;;;;;;;;;;;6.21;74.48;98633.56;7384090;19;19947;-75
2022/12/02 01:08:39;;;;;;;;;;;;;;;6.17;74.99;98642.66;7385691;19;19922;-75
2022/12/02 01:11:06;;;;;;;;;;;;;;;6.26;74.61;98641.91;7387123;19;19938;-75
2022/12/02 01:13:33;;;;;;;;;;;;;;;6.38;74.64;98635.69;7384520;19;19922;-75
2022/12/02 01:16:00;;;;;;;;;;;;;;;6.31;74.75;98637.97;7386785;19;19918;-75
2022/12/02 01:18:27;;;;;;;;;;;;;;;6.47;74.58;98639.38;7384309;19;21597;-75
2022/12/02 01:20:53;;;;;;;;;;;;;;;6.41;74.45;98634.59;7381809;19;20248;-75
2022/12/02 01:23:20;;;;;;;;;;;;;;;6.44;74.60;98629.09;7382815;19;19935;-75
2022/12/02 01:25:47;;;;;;;;;;;;;;;6.26;74.93;98623.53;7383709;19;19925;-75
2022/12/02 01:28:15;;;;;;;;;;;;;;;6.32;74.62;98623.06;7384423;19;20267;-75
2022/12/02 01:30:41;;;;;;;;;;;;;;;6.26;74.13;98620.91;7382764;19;19922;-75
2022/12/02 01:33:08;;;;;;;;;;;;;;;6.35;74.57;98615.75;7383428;19;19948;-75
2022/12/02 01:35:34;;;;;;;;;;;;;;;6.40;74.17;98617.16;7382819;19;19915;-75
2022/12/02 01:38:01;;;;;;;;;;;;;;;6.36;74.09;98619.22;7380016;19;19919;-75
2022/12/02 01:40:28;;;;;;;;;;;;;;;6.15;74.24;98619.94;7379883;19;19966;-75
2022/12/02 01:42:55;;;;;;;;;;;;;;;6.17;74.37;98619.84;7387292;19;19954;-75
2022/12/02 01:45:21;;;;;;;;;;;;;;;6.31;74.60;98624.81;7385519;19;20249;-75
2022/12/02 01:47:48;;;;;;;;;;;;;;;6.30;74.43;98622.34;7383422;19;19918;-75
2022/12/02 01:50:15;;;;;;;;;;;;;;;6.41;74.53;98624.94;7384154;19;19923;-75
2022/12/02 01:52:41;;;;;;;;;;;;;;;6.43;73.97;98627.44;7381950;19;19933;-75
2022/12/02 01:55:12;;;;;;;;;;;;;;;6.36;74.40;98622.66;7381567;19;19919;-75
2022/12/02 01:57:39;;;;;;;;;;;;;;;6.21;74.39;98620.41;7380863;19;20376;-75
2022/12/02 02:00:06;;;;;;;;;;;;;;;6.25;74.62;98624.50;7381528;19;19930;-75
2022/12/02 02:02:37;;;;;;;;;;;;;;;6.43;74.31;98617.75;7386156;19;19930;-75
2022/12/02 02:05:05;;;;;;;;;;;;;;;6.42;73.91;98621.31;7381934;19;19911;-75
2022/12/02 02:07:31;;;;;;;;;;;;;;;6.36;74.66;98617.41;7381146;19;19929;-75
2022/12/02 02:09:58;;;;;;;;;;;;;;;6.35;74.32;98613.13;7379625;19;19915;-75
2022/12/02 02:12:26;;;;;;;;;;;;;;;6.41;74.34;98614.41;7380035;19;19948;-75
2022/12/02 02:14:53;;;;;;;;;;;;;;;6.31;74.40;98616.09;7379199;19;19942;-75
2022/12/02 02:17:20;;;;;;;;;;;;;;;6.42;74.14;98615.25;7381925;19;20000;-75
2022/12/02 02:19:48;;;;;;;;;;;;;;;6.44;74.01;98613.34;7382790;19;19915;-75
2022/12/02 02:22:38;;;;;;;;;;;;;;;6.41;73.81;98608.34;7382792;19;19932;-75
2022/12/02 02:25:10;;;;;;;;;;;;;;;6.46;73.79;98609.63;7380678;19;19915;-75
2022/12/02 02:27:44;;;;;;;;;;;;;;;6.34;74.25;98600.09;7379483;19;20772;-75
2022/12/02 02:30:11;;;;;;;;;;;;;;;6.35;74.27;98601.78;7377642;19;19926;-75
2022/12/02 02:32:38;;;;;;;;;;;;;;;6.43;74.07;98598.53;7377967;19;19926;-75
2022/12/02 02:35:05;;;;;;;;;;;;;;;6.32;74.57;98602.84;7379401;19;19919;-75
2022/12/02 02:37:31;;;;;;;;;;;;;;;6.19;74.76;98596.91;7381348;19;20358;-75
2022/12/02 02:39:59;;;;;;;;;;;;;;;6.11;75.13;98586.19;7380702;19;19959;-75
2022/12/02 02:42:27;;;;;;;;;;;;;;;6.25;74.70;98596.41;7382787;19;19927;-75
2022/12/02 02:44:53;;;;;;;;;;;;;;;6.24;74.71;98591.28;7386438;19;19944;-75
2022/12/02 02:47:20;;;;;;;;;;;;;;;6.12;74.91;98593.09;7388229;19;20239;-75
2022/12/02 02:49:46;;;;;;;;;;;;;;;6.19;74.57;98590.81;7388988;19;19919;-75
2022/12/02 02:52:13;;;;;;;;;;;;;;;6.20;74.51;98587.25;7390841;19;19998;-75
2022/12/02 02:54:41;;;;;;;;;;;;;;;6.10;75.05;98584.50;7390648;19;19944;-75
2022/12/02 02:57:09;;;;;;;;;;;;;;;6.24;74.76;98586.88;7389969;19;19943;-75
2022/12/02 02:59:36;;;;;;;;;;;;;;;6.10;74.79;98580.06;7387729;19;19934;-75
2022/12/02 03:02:03;;;;;;;;;;;;;;;6.15;74.74;98577.09;7386757;19;19931;-75
2022/12/02 03:04:30;;;;;;;;;;;;;;;6.21;74.62;98578.38;7388674;19;19923;-75
2022/12/02 03:06:57;;;;;;;;;;;;;;;6.17;74.92;98574.34;7390248;19;20251;-75
2022/12/02 03:09:23;;;;;;;;;;;;;;;6.15;75.00;98572.66;7389615;19;19946;-75
2022/12/02 03:11:50;;;;;;;;;;;;;;;6.15;74.61;98572.66;7389461;19;19942;-75
2022/12/02 03:14:17;;;;;;;;;;;;;;;6.15;75.02;98572.66;7387953;19;19940;-75
2022/12/02 03:16:43;;;;;;;;;;;;;;;6.22;74.65;98580.06;7388191;19;19915;-75
2022/12/02 03:19:10;;;;;;;;;;;;;;;6.14;74.99;98571.00;7384860;19;19946;-75
2022/12/02 03:21:37;;;;;;;;;;;;;;;6.12;74.52;98569.47;7387771;19;20280;-75
2022/12/02 03:24:04;;;;;;;;;;;;;;;6.03;75.12;98565.78;7387846;19;19930;-75
2022/12/02 03:26:31;;;;;;;;;;;;;;;6.12;74.89;98570.28;7390869;19;20045;-75
2022/12/02 03:28:58;;;;;;;;;;;;;;;6.12;74.66;98567.66;7388679;19;20337;-75
2022/12/02 03:31:25;;;;;;;;;;;;;;;6.13;74.87;98569.34;7388824;19;19927;-76
2022/12/02 03:33:51;;;;;;;;;;;;;;;6.09;74.81;98565.28;7383079;19;20405;-75
2022/12/02 03:36:19;;;;;;;;;;;;;;;6.01;74.96;98572.94;7387619;19;19931;-75
2022/12/02 03:38:46;;;;;;;;;;;;;;;6.10;74.92;98568.75;7389323;19;19918;-75
2022/12/02 03:41:12;;;;;;;;;;;;;;;6.07;74.96;98572.44;7387578;19;19919;-75
2022/12/02 03:43:39;;;;;;;;;;;;;;;6.00;75.21;98573.88;7386538;19;19927;-75
2022/12/02 03:46:05;;;;;;;;;;;;;;;6.09;74.76;98573.16;7387730;19;19914;-75
2022/12/02 03:48:33;;;;;;;;;;;;;;;6.14;74.71;98565.75;7387174;19;20289;-76
2022/12/02 03:50:59;;;;;;;;;;;;;;;6.11;74.88;98567.81;7386136;19;19943;-76
2022/12/02 03:53:27;;;;;;;;;;;;;;;5.93;75.01;98564.81;7385230;19;19935;-75
2022/12/02 03:55:54;;;;;;;;;;;;;;;5.97;74.87;98565.44;7387748;19;19922;-75
2022/12/02 03:58:31;;;;;;;;;;;;;;;6.06;74.52;98560.28;7390072;19;19943;-75
2022/12/02 04:00:57;;;;;;;;;;;;;;;5.99;74.92;98561.72;7385871;19;19926;-75
2022/12/02 04:03:23;;;;;;;;;;;;;;;5.84;75.43;98561.09;7386990;19;19954;-75
2022/12/02 04:05:51;;;;;;;;;;;;;;;5.96;74.76;98558.53;7385311;19;20006;-75
2022/12/02 04:08:18;;;;;;;;;;;;;;;6.02;74.72;98555.41;7388348;19;19919;-75
2022/12/02 04:10:44;;;;;;;;;;;;;;;6.08;74.65;98547.88;7380451;19;20251;-75
2022/12/02 04:13:11;;;;;;;;;;;;;;;6.08;74.48;98540.00;7388100;19;19919;-76
2022/12/02 04:15:37;;;;;;;;;;;;;;;6.07;74.63;98538.31;7383238;19;19918;-75
2022/12/02 04:18:04;;;;;;;;;;;;;;;6.04;74.91;98543.81;7389613;19;19919;-75
2022/12/02 04:20:30;;;;;;;;;;;;;;;6.12;74.77;98535.31;7382657;19;20445;-75
2022/12/02 04:22:57;;;;;;;;;;;;;;;6.15;74.59;98529.81;7385055;19;19915;-75
2022/12/02 04:25:23;;;;;;;;;;;;;;;6.12;74.63;98530.06;7383916;19;20342;-75
2022/12/02 04:27:50;;;;;;;;;;;;;;;6.20;74.40;98525.03;7388247;19;19922;-75
2022/12/02 04:30:16;;;;;;;;;;;;;;;6.11;74.88;98526.59;7384546;19;19927;-75
2022/12/02 04:32:43;;;;;;;;;;;;;;;6.19;74.65;98533.00;7385125;19;19935;-75
2022/12/02 04:35:10;;;;;;;;;;;;;;;6.21;74.32;98533.72;7387613;19;19922;-75
2022/12/02 04:37:36;;;;;;;;;;;;;;;6.21;74.30;98536.34;7386366;19;20354;-75
2022/12/02 04:40:03;;;;;;;;;;;;;;;6.12;74.82;98525.63;7384067;19;19958;-75
2022/12/02 04:42:30;;;;;;;;;;;;;;;6.15;74.63;98528.00;7382499;19;19946;-75
2022/12/02 04:44:56;;;;;;;;;;;;;;;6.25;74.53;98533.38;7379486;19;20008;-75
2022/12/02 04:47:23;;;;;;;;;;;;;;;6.18;74.36;98529.56;7381726;19;19951;-75
2022/12/02 04:49:50;;;;;;;;;;;;;;;6.08;74.96;98523.38;7383159;19;19923;-75
2022/12/02 04:52:16;;;;;;;;;;;;;;;5.93;75.32;98530.69;7387710;19;19930;-75
2022/12/02 04:54:43;;;;;;;;;;;;;;;6.10;74.58;98530.16;7388359;19;20591;-75
2022/12/02 04:57:09;;;;;;;;;;;;;;;6.11;74.78;98531.03;7387011;19;19919;-75
2022/12/02 04:59:36;;;;;;;;;;;;;;;6.12;74.67;98528.25;7381255;19;20367;-75
2022/12/02 05:02:02;;;;;;;;;;;;;;;6.23;74.67;98522.13;7386047;19;19918;-75
2022/12/02 05:04:29;;;;;;;;;;;;;;;6.07;74.93;98527.81;7384869;19;19927;-75
2022/12/02 05:07:03;;;;;;;;;;;;;;;6.02;75.16;98527.34;7388346;19;19986;-75
2022/12/02 05:09:30;;;;;;;;;;;;;;;5.99;75.08;98529.38;7387084;19;19919;-75
2022/12/02 05:11:56;;;;;;;;;;;;;;;5.95;75.34;98523.56;7387591;19;20388;-75
2022/12/02 05:14:23;;;;;;;;;;;;;;;6.04;75.35;98530.69;7378039;19;19946;-75
2022/12/02 05:16:50;;;;;;;;;;;;;;;6.06;75.38;98531.41;7383373;19;19929;-75
2022/12/02 05:19:17;;;;;;;;;;;;;;;5.96;75.36;98529.63;7386562;19;19930;-75
2022/12/02 05:21:43;;;;;;;;;;;;;;;5.96;75.68;98525.22;7386134;19;19914;-76
2022/12/02 05:24:11;;;;;;;;;;;;;;;6.06;76.02;98520.88;7382627;19;19947;-76
2022/12/02 05:26:37;;;;;;;;;;;;;;;6.09;75.81;98520.63;7384971;19;19918;-75
2022/12/02 05:29:05;;;;;;;;;;;;;;;6.21;75.63;98517.97;7384034;19;20354;-76
2022/12/02 05:31:31;;;;;;;;;;;;;;;6.28;75.55;98519.97;7383343;19;19926;-76
2022/12/02 05:33:59;;;;;;;;;;;;;;;6.12;75.61;98517.75;7380139;19;19922;-76
2022/12/02 05:36:25;;;;;;;;;;;;;;;5.73;77.23;98525.19;7383622;19;19919;-76
2022/12/02 05:38:52;;;;;;;;;;;;;;;5.75;77.23;98513.75;7386117;19;19930;-75
2022/12/02 05:41:19;;;;;;;;;;;;;;;5.66;77.62;98518.78;7382972;19;19939;-75
2022/12/02 05:43:45;;;;;;;;;;;;;;;5.67;77.67;98517.00;7383239;19;19959;-75
2022/12/02 05:46:13;;;;;;;;;;;;;;;5.56;78.05;98514.38;7378934;19;20127;-75
2022/12/02 05:48:40;;;;;;;;;;;;;;;5.65;78.01;98511.84;7375571;19;19948;-75
2022/12/02 05:51:14;;;;;;;;;;;;;;;5.72;77.67;98512.22;7381842;19;19914;-76
2022/12/02 05:53:41;;;;;;;;;;;;;;;5.49;78.03;98511.41;7380735;19;19919;-75
2022/12/02 05:56:21;;;;;;;;;;;;;;;5.68;78.09;98518.66;7379271;19;20366;-76
2022/12/02 05:58:47;;;;;;;;;;;;;;;5.49;78.63;98517.47;7386661;19;20299;-75
2022/12/02 06:01:22;;;;;;;;;;;;;;;5.42;78.65;98516.28;7385503;19;19965;-75
2022/12/02 06:03:49;;;;;;;;;;;;;;;5.33;79.10;98516.19;7381144;19;19928;-75
2022/12/02 06:06:16;;;;;;;;;;;;;;;5.33;79.28;98516.19;7378581;19;19915;-75
2022/12/02 06:08:42;;;;;;;;;;;;;;;5.47;78.95;98508.88;7380835;19;19914;-75
2022/12/02 06:11:29;;;;;;;;;;;;;;;5.49;79.08;98514.03;7384035;19;19947;-75
2022/12/02 06:13:56;;;;;;;;;;;;;;;5.44;78.74;98513.53;7384342;19;19939;-76
2022/12/02 06:16:23;;;;;;;;;;;;;;;5.47;78.69;98513.31;7386643;19;19919;-75
2022/12/02 06:18:50;;;;;;;;;;;;;;;5.55;78.61;98512.69;7390635;19;19972;-75
2022/12/02 06:21:18;;;;;;;;;;;;;;;5.49;78.43;98511.41;7390492;19;20551;-75
2022/12/02 06:23:48;;;;;;;;;;;;;;;5.56;78.30;98507.34;7388161;19;19918;-75
2022/12/02 06:26:15;;;;;;;;;;;;;;;5.59;78.30;98509.72;7390242;19;19939;-76
2022/12/02 06:28:43;;;;;;;;;;;;;;;5.62;78.43;98508.66;7392920;19;19914;-75
2022/12/02 06:31:13;;;;;;;;;;;;;;;5.37;78.82;98513.22;7389242;19;20456;-75
2022/12/02 06:33:40;;;;;;;;;;;;;;;5.40;79.14;98510.34;7389833;19;19922;-75
2022/12/02 06:36:14;;;;;;;;;;;;;;;5.50;79.32;98502.56;7389512;19;20346;-75
2022/12/02 06:38:48;;;;;;;;;;;;;;;5.56;79.04;98504.72;7388987;19;19954;-75
2022/12/02 06:41:19;;;;;;;;;;;;;;;5.35;79.20;98501.16;7386908;19;19934;-75
2022/12/02 06:45:03;;;;;;;;;;;;;;;5.42;79.04;98497.06;7391232;19;19924;-75
2022/12/02 06:46:33;;;;;;;;;;;;;;;5.55;78.62;98502.19;7391711;19;19922;-76
2022/12/02 06:49:01;;;;;;;;;;;;;;;5.54;78.89;98503.16;7391297;19;20355;-76
2022/12/02 06:51:27;;;;;;;;;;;;;;;5.47;79.36;98506.25;7390288;19;19932;-75
2022/12/02 06:53:54;;;;;;;;;;;;;;;5.54;78.99;98500.53;7389963;19;19923;-76
2022/12/02 06:56:20;;;;;;;;;;;;;;;5.46;79.17;98501.97;7389233;19;19918;-76
2022/12/02 06:58:56;;;;;;;;;;;;;;;5.54;78.89;98506.63;7389382;19;19966;-75
2022/12/02 07:01:30;;;;;;;;;;;;;;;5.24;79.57;98502.81;7393991;19;19922;-76
2022/12/02 07:04:00;;;;;;;;;;;;;;;5.36;79.60;98508.06;7391802;19;19923;-76
2022/12/02 07:06:27;;;;;;;;;;;;;;;5.44;79.46;98508.28;7391351;19;20016;-75
2022/12/02 07:08:57;;;;;;;;;;;;;;;5.41;79.34;98513.78;7390859;19;19951;-76
2022/12/02 07:11:48;;;;;;;;;;;;;;;5.51;79.26;98499.00;7388750;19;19931;-75
2022/12/02 07:14:24;;;;;;;;;;;;;;;5.57;79.27;98501.13;7384586;19;20352;-75
2022/12/02 07:16:51;;;;;;;;;;;;;;;5.35;79.62;98502.00;7394801;19;19954;-75
2022/12/02 07:19:19;;;;;;;;;;;;;;;5.43;79.53;98498.78;7389743;19;19922;-75
2022/12/02 07:21:45;;;;;;;;;;;;;;;5.41;79.18;98505.91;7393588;19;19942;-75
2022/12/02 07:24:19;;;;;;;;;;;;;;;5.47;79.42;98505.44;7391055;19;19954;-76
2022/12/02 07:26:45;;;;;;;;;;;;;;;5.46;79.43;98501.16;7389511;19;19927;-75
2022/12/02 07:29:13;;;;;;;;;;;;;;;5.34;79.74;98510.78;7386091;19;19914;-76
2022/12/02 07:31:43;;;;;;;;;;;;;;;5.37;79.74;98507.97;7388029;19;19929;-75
2022/12/02 07:34:11;;;;;;;;;;;;;;;5.53;79.32;98504.97;7388473;19;19919;-75
2022/12/02 07:36:38;;;;;;;;;;;;;;;5.43;79.41;98515.34;7392031;19;19956;-76
2022/12/02 07:39:05;;;;;;;;;;;;;;;5.37;79.67;98517.59;7389037;19;19966;-75
2022/12/02 07:41:35;;;;;;;;;;;;;;;5.45;79.43;98505.56;7388781;19;20643;-75
2022/12/02 07:44:03;;;;;;;;;;;;;;;5.58;79.18;98505.44;7390288;19;19939;-75
2022/12/02 07:46:30;;;;;;;;;;;;;;;5.63;79.17;98507.69;7387744;19;19918;-75
2022/12/02 07:48:56;;;;;;;;;;;;;;;5.52;79.01;98503.28;7389993;19;19990;-75
2022/12/02 07:51:23;;;;;;;;;;;;;;;5.68;78.90;98497.66;7391786;19;19934;-75
2022/12/02 07:53:50;;;;;;;;;;;;;;;5.63;78.94;98503.25;7388438;19;20382;-76
2022/12/02 07:56:16;;;;;;;;;;;;;;;5.63;78.97;98507.69;7387136;19;20396;-76
2022/12/02 07:58:43;;;;;;;;;;;;;;;5.67;78.80;98501.25;7390478;19;20327;-76
2022/12/02 08:01:29;;;;;;;;;;;;;;;5.78;78.30;98506.47;7388208;19;19911;-75
2022/12/02 08:03:56;;;;;;;;;;;;;;;5.65;78.47;98501.34;7384237;19;19910;-75
2022/12/02 08:06:23;;;;;;;;;;;;;;;5.59;78.84;98499.22;7385829;19;19926;-75
2022/12/02 08:08:49;;;;;;;;;;;;;;;5.68;78.69;98501.09;7393222;19;19914;-75
2022/12/02 08:11:16;;;;;;;;;;;;;;;5.57;78.69;98495.06;7389542;19;19919;-75
2022/12/02 08:13:42;;;;;;;;;;;;;;;5.61;78.94;98502.56;7389029;19;19947;-75
2022/12/02 08:16:10;;;;;;;;;;;;;;;5.52;79.12;98505.06;7390406;19;20339;-75
2022/12/02 08:18:37;;;;;;;;;;;;;;;5.59;79.48;98501.84;7386444;19;20357;-75
2022/12/02 08:21:04;;;;;;;;;;;;;;;5.50;79.46;98503.41;7389148;19;19917;-75
2022/12/02 08:23:35;;;;;;;;;;;;;;;5.55;78.95;98504.81;7384479;19;19942;-75
2022/12/02 08:26:02;;;;;;;;;;;;;;;5.52;78.93;98498.03;7385373;19;19926;-75
2022/12/02 08:28:29;;;;;;;;;;;;;;;5.50;79.04;98499.94;7387105;19;19923;-75
2022/12/02 08:30:55;;;;;;;;;;;;;;;5.38;79.24;98495.66;7386936;19;19923;-75
2022/12/02 08:33:22;;;;;;;;;;;;;;;5.40;79.53;98496.38;7388817;19;19919;-76
2022/12/02 08:35:48;;;;;;;;;;;;;;;5.45;79.39;98497.69;7384257;19;19915;-75
2022/12/02 08:38:15;;;;;;;;;;;;;;;5.48;79.39;98497.44;7387946;19;19918;-76
2022/12/02 08:40:42;;;;;;;;;;;;;;;5.46;79.56;98496.72;7389801;19;19938;-75
2022/12/02 08:43:09;;;;;;;;;;;;;;;5.44;79.41;98496.00;7389569;19;19918;-75
2022/12/02 08:45:35;;;;;;;;;;;;;;;5.43;79.60;98496.97;7385582;19;19933;-75
2022/12/02 08:48:02;;;;;;;;;;;;;;;5.56;79.33;98496.84;7387379;19;19927;-75
2022/12/02 08:50:29;;;;;;;;;;;;;;;5.49;79.58;98491.22;7385125;19;19938;-75
2022/12/02 08:52:55;;;;;;;;;;;;;;;5.60;78.90;98493.00;7387357;19;19926;-75
2022/12/02 08:55:24;;;;;;;;;;;;;;;5.58;78.92;98496.72;7382624;19;19936;-75
2022/12/02 08:57:50;;;;;;;;;;;;;;;5.41;79.36;98495.41;7386822;19;19915;-75
2022/12/02 09:00:17;;;;;;;;;;;;;;;5.49;79.84;98490.41;7389586;19;19943;-75
2022/12/02 09:02:44;;;;;;;;;;;;;;;5.42;79.89;98490.03;7390253;19;19938;-75
2022/12/02 09:05:11;;;;;;;;;;;;;;;5.65;79.89;98490.03;7387883;19;19944;-76
2022/12/02 09:07:37;;;;;;;;;;;;;;;5.79;79.04;98491.53;7385641;19;19956;-75
2022/12/02 09:10:05;;;;;;;;;;;;;;;5.65;79.41;98482.16;7385098;19;20250;-75
2022/12/02 09:12:32;;;;;;;;;;;;;;;5.83;79.21;98482.47;7382157;19;19944;-75
2022/12/02 09:14:59;;;;;;;;;;;;;;;5.77;79.28;98486.44;7384825;19;19943;-75
2022/12/02 09:17:25;;;;;;;;;;;;;;;5.74;79.42;98481.44;7389726;19;20036;-75
2022/12/02 09:19:52;;;;;;;;;;;;;;;5.76;79.44;98481.28;7387530;19;19951;-75
2022/12/02 09:22:19;;;;;;;;;;;;;;;5.78;79.54;98484.63;7387113;19;19919;-75
2022/12/02 09:24:45;;;;;;;;;;;;;;;5.90;79.00;98483.66;7382281;19;19926;-75
2022/12/02 09:27:12;;;;;;;;;;;;;;;5.66;79.29;98481.19;7385323;19;20338;-75
2022/12/02 09:29:38;;;;;;;;;;;;;;;5.76;79.36;98486.53;7389150;19;19915;-74
2022/12/02 09:32:05;;;;;;;;;;;;;;;5.86;79.05;98476.97;7385217;19;19942;-76
2022/12/02 09:34:32;;;;;;;;;;;;;;;5.69;79.67;98480.97;7386337;19;19951;-75
2022/12/02 09:36:58;;;;;;;;;;;;;;;5.82;79.38;98479.03;7389522;19;19913;-75
2022/12/02 09:39:25;;;;;;;;;;;;;;;5.86;79.31;98477.81;7385825;19;19937;-75
2022/12/02 09:41:52;;;;;;;;;;;;;;;5.95;79.21;98481.53;7385922;19;19959;-75
2022/12/02 09:44:18;;;;;;;;;;;;;;;6.00;79.03;98484.59;7385670;19;19926;-75
2022/12/02 09:46:45;;;;;;;;;;;;;;;6.02;79.05;98482.69;7387889;19;19967;-75
2022/12/02 09:49:11;;;;;;;;;;;;;;;6.10;78.65;98475.00;7388311;19;20344;-75
2022/12/02 09:51:38;;;;;;;;;;;;;;;5.91;79.15;98475.66;7386730;19;19929;-75
2022/12/02 09:54:05;;;;;;;;;;;;;;;5.94;79.10;98466.72;7387256;19;19926;-75
2022/12/02 09:56:31;;;;;;;;;;;;;;;5.86;79.71;98474.34;7384038;19;19918;-75
2022/12/02 09:58:58;;;;;;;;;;;;;;;6.03;79.30;98478.25;7384781;19;20395;-75
2022/12/02 10:01:24;;;;;;;;;;;;;;;5.96;79.21;98467.44;7383066;19;19919;-75
2022/12/02 10:03:51;;;;;;;;;;;;;;;5.75;79.39;98463.88;7382046;19;19910;-74
2022/12/02 10:06:19;;;;;;;;;;;;;;;5.88;79.14;98456.69;7386219;19;20284;-75
2022/12/02 10:08:46;;;;;;;;;;;;;;;5.84;78.86;98463.97;7385499;19;20523;-75
2022/12/02 10:11:18;;;;;;;;;;;;;;;6.04;78.94;98458.94;7385400;19;19918;-74
2022/12/02 10:13:45;;;;;;;;;;;;;;;5.99;79.20;98461.09;7381444;19;19939;-76
2022/12/02 10:16:12;;;;;;;;;;;;;;;6.00;78.99;98458.34;7382265;19;19948;-75
2022/12/02 10:18:39;;;;;;;;;;;;;;;5.92;79.31;98455.47;7382353;19;20287;-76
2022/12/02 10:21:06;;;;;;;;;;;;;;;5.98;78.90;98455.03;7386287;19;19946;-75
2022/12/02 10:23:52;;;;;;;;;;;;;;;5.66;79.10;98457.56;7386800;19;19923;-75
2022/12/02 10:26:19;;;;;;;;;;;;;;;5.74;79.45;98457.81;7388657;19;19915;-75
2022/12/02 10:29:03;;;;;;;;;;;;;;;5.69;79.93;98445.03;7385296;19;20327;-75
2022/12/02 10:31:30;;;;;;;;;;;;;;;5.83;79.57;98456.22;7384245;19;19915;-74
2022/12/02 10:33:59;;;;;;;;;;;;;;;5.71;79.70;98450.16;7381538;19;20270;-75
2022/12/02 10:36:36;;;;;;;;;;;;;;;5.72;79.92;98436.09;7381076;19;19922;-75
2022/12/02 10:39:26;;;;;;;;;;;;;;;5.97;79.23;98440.22;7384148;19;19918;-75
2022/12/02 10:42:03;;;;;;;;;;;;;;;5.92;79.27;98429.22;7385013;19;20156;-75
2022/12/02 10:44:39;;;;;;;;;;;;;;;5.82;79.39;98438.78;7386189;19;19918;-74
2022/12/02 10:47:09;;;;;;;;;;;;;;;5.88;79.29;98431.25;7382316;19;20282;-75
2022/12/02 10:49:42;;;;;;;;;;;;;;;5.95;78.74;98434.28;7382121;19;19918;-75
2022/12/02 10:52:16;;;;;;;;;;;;;;;5.72;79.48;98428.22;7382596;19;20338;-74
2022/12/02 10:54:44;;;;;;;;;;;;;;;5.78;79.23;98432.13;7384782;19;19919;-75
2022/12/02 10:57:15;;;;;;;;;;;;;;;5.86;79.46;98432.34;7387919;19;19915;-75
2022/12/02 10:59:45;;;;;;;;;;;;;;;5.88;79.28;98423.38;7383629;19;19919;-75
2022/12/02 11:02:32;;;;;;;;;;;;;;;5.82;79.29;98425.66;7384035;19;19927;-75
2022/12/02 11:05:00;;;;;;;;;;;;;;;5.82;79.02;98423.03;7389885;19;20352;-75
2022/12/02 11:07:27;;;;;;;;;;;;;;;5.81;79.29;98413.50;7389044;19;19911;-75
2022/12/02 11:09:56;;;;;;;;;;;;;;;5.83;79.26;98412.41;7392921;19;19923;-74
2022/12/02 11:12:33;;;;;;;;;;;;;;;5.77;79.53;98417.34;7391617;19;19919;-74
2022/12/02 11:15:00;;;;;;;;;;;;;;;5.83;79.38;98414.22;7386884;19;19938;-74
2022/12/02 11:17:49;;;;;;;;;;;;;;;5.79;79.37;98403.13;7391083;19;19922;-74
2022/12/02 11:20:27;;;;;;;;;;;;;;;5.83;79.65;98401.91;7388624;19;20279;-74
2022/12/02 11:22:59;;;;;;;;;;;;;;;6.03;79.11;98407.34;7387096;19;19923;-75
2022/12/02 11:25:41;;;;;;;;;;;;;;;5.97;78.82;98405.25;7390153;19;19927;-75
2022/12/02 11:28:17;;;;;;;;;;;;;;;6.07;78.87;98399.09;7392114;19;19922;-75
2022/12/02 11:30:45;;;;;;;;;;;;;;;6.13;79.13;98400.38;7389695;19;19919;-73
2022/12/02 11:33:12;;;;;;;;;;;;;;;5.99;79.20;98398.91;7393249;19;19915;-73
2022/12/02 11:36:05;;;;;;;;;;;;;;;6.00;78.99;98402.34;7387621;19;20017;-73
2022/12/02 11:38:37;;;;;;;;;;;;;;;5.94;79.29;98388.78;7386969;19;19919;-73
2022/12/02 11:41:03;;;;;;;;;;;;;;;5.97;78.96;98395.56;7385816;19;19919;-73
2022/12/02 11:43:59;;;;;;;;;;;;;;;5.85;79.36;98389.50;7391054;19;19950;-73
2022/12/02 11:46:41;;;;;;;;;;;;;;;5.88;79.28;98391.06;7388230;19;19915;-73
2022/12/02 11:49:26;;;;;;;;;;;;;;;6.10;79.14;98382.25;7391694;19;19939;-74
2022/12/02 11:52:08;;;;;;;;;;;;;;;6.05;78.67;98387.06;7391952;19;19914;-74
2022/12/02 11:54:38;;;;;;;;;;;;;;;6.07;79.48;98370.22;7387672;19;19929;-73
2022/12/02 11:57:19;;;;;;;;;;;;;;;5.78;79.06;98379.63;7387087;19;19918;-73
2022/12/02 11:59:46;;;;;;;;;;;;;;;5.88;79.42;98373.50;7385994;19;20005;-73
2022/12/02 12:02:14;;;;;;;;;;;;;;;6.09;79.04;98370.91;7389966;19;19919;-73
2022/12/02 12:04:41;;;;;;;;;;;;;;;6.05;78.99;98371.28;7388106;19;19922;-73
2022/12/02 12:07:08;;;;;;;;;;;;;;;6.03;79.54;98370.59;7389754;19;19978;-74
2022/12/02 12:09:35;;;;;;;;;;;;;;;5.99;79.27;98371.81;7386117;19;20346;-74
2022/12/02 12:12:14;;;;;;;;;;;;;;;6.01;78.72;98380.41;7390184;19;19939;-73
2022/12/02 12:14:54;;;;;;;;;;;;;;;5.97;78.81;98371.94;7383226;19;19938;-73
2022/12/02 12:17:32;;;;;;;;;;;;;;;5.82;78.89;98371.38;7387635;19;19936;-73
2022/12/02 12:19:59;;;;;;;;;;;;;;;5.81;78.68;98374.13;7384803;19;19918;-73
2022/12/02 12:22:28;;;;;;;;;;;;;;;5.76;78.97;98366.63;7391158;19;19919;-73
2022/12/02 12:25:14;;;;;;;;;;;;;;;5.63;78.91;98364.16;7389630;19;19974;-73
2022/12/02 12:27:43;;;;;;;;;;;;;;;5.62;79.46;98364.31;7388930;19;20404;-73
2022/12/02 12:30:11;;;;;;;;;;;;;;;5.71;79.10;98369.63;7386538;19;20260;-73
2022/12/02 12:32:38;;;;;;;;;;;;;;;5.78;78.77;98362.09;7389614;19;19915;-73
2022/12/02 12:35:05;;;;;;;;;;;;;;;5.64;79.24;98362.38;7389399;19;19930;-73
2022/12/02 12:37:32;;;;;;;;;;;;;;;5.64;79.29;98363.22;7390578;19;20362;-74
2022/12/02 12:39:58;;;;;;;;;;;;;;;5.80;78.99;98359.34;7389864;19;19939;-73
2022/12/02 12:42:27;;;;;;;;;;;;;;;5.67;79.61;98352.47;7390356;19;20588;-73
2022/12/02 12:44:53;;;;;;;;;;;;;;;5.60;79.58;98353.09;7384078;19;19919;-73
2022/12/02 12:47:20;;;;;;;;;;;;;;;5.71;79.14;98353.91;7383132;19;19939;-73
2022/12/02 12:49:54;;;;;;;;;;;;;;;5.65;78.96;98349.13;7383292;19;19926;-73
2022/12/02 12:52:30;;;;;;;;;;;;;;;5.76;79.15;98345.63;7386112;19;20661;-73
2022/12/02 12:54:57;;;;;;;;;;;;;;;5.66;79.10;98344.69;7383350;19;19947;-74
2022/12/02 12:57:24;;;;;;;;;;;;;;;5.50;79.95;98345.97;7388992;19;19922;-73
2022/12/02 12:59:51;;;;;;;;;;;;;;;5.68;79.29;98343.63;7388117;19;20271;-74
2022/12/02 13:02:25;;;;;;;;;;;;;;;5.66;79.08;98350.81;7386806;19;20559;-74
2022/12/02 13:04:54;;;;;;;;;;;;;;;5.48;79.42;98344.44;7385919;19;19917;-73
2022/12/02 13:07:22;;;;;;;;;;;;;;;5.67;79.52;98344.59;7388894;19;20793;-74
2022/12/02 13:09:49;;;;;;;;;;;;;;;5.55;80.00;98342.13;7386412;19;19946;-74